aviador You're here:

RJOO Decoded Metar

OSAKA in JAPAN
Report Time2014-12-20 22:00:00
UTC Time2014-12-20 22:55:25
Flight Rules vfr VFR
Wind320° at 07 kt
W.Decomp.*RWY 32: 6.9 kt HW 0.9 kt RCW
W.Rank320° ranks 1
Current wind is above 320° avg. (6.5)
Visibility9999 m
Phenomena:N/A
Clouds:Few 025 Hf
Expected CloudBase > 800 ft AGL from Temp-Dew spread
CeilingNone
Temp03°C (ISA -12)
Dew Point01°C (87% RH)
AAT-1.3°C
QNH1017 hPa
Density Alt-1,444 ft
Elevation49 ft
Report Wrong Elevation
Raw Report
METAR RJOO 202200Z 32007KT 9999 FEW025 03/01 Q1017 RMK 1CU025 A3003=

Extra information for RJOO:More info

Metar Taf Metar & Taf Last 4 Metars F.Rules Stats Wind Profile Meteogram Temp Stats Airport Information Weather charts Add Link Nearby VenuesMetar ALERT Operation Metar Decoded Social comments